sensor_id;sensor_type;location;lat;lon;timestamp;P1;durP1;ratioP1;P2;durP2;ratioP2
1811;SDS011;904;47.814;11.134;2023-02-15T00:01:49;23.40;;;12.10;;
1811;SDS011;904;47.814;11.134;2023-02-15T00:04:17;21.27;;;9.90;;
1811;SDS011;904;47.814;11.134;2023-02-15T00:06:46;12.48;;;9.38;;
1811;SDS011;904;47.814;11.134;2023-02-15T00:09:15;14.57;;;10.93;;
1811;SDS011;904;47.814;11.134;2023-02-15T00:11:43;16.60;;;10.18;;
1811;SDS011;904;47.814;11.134;2023-02-15T00:14:16;15.88;;;9.85;;
1811;SDS011;904;47.814;11.134;2023-02-15T00:16:45;15.02;;;9.63;;
1811;SDS011;904;47.814;11.134;2023-02-15T00:19:14;15.93;;;9.18;;
1811;SDS011;904;47.814;11.134;2023-02-15T00:21:43;15.90;;;9.55;;
1811;SDS011;904;47.814;11.134;2023-02-15T00:24:11;27.15;;;9.55;;
1811;SDS011;904;47.814;11.134;2023-02-15T00:26:42;21.02;;;9.75;;
1811;SDS011;904;47.814;11.134;2023-02-15T00:29:10;13.35;;;9.95;;
1811;SDS011;904;47.814;11.134;2023-02-15T00:31:38;14.20;;;8.55;;
1811;SDS011;904;47.814;11.134;2023-02-15T00:34:06;16.77;;;9.43;;
1811;SDS011;904;47.814;11.134;2023-02-15T00:36:37;11.70;;;8.93;;
1811;SDS011;904;47.814;11.134;2023-02-15T00:39:04;16.20;;;10.13;;
1811;SDS011;904;47.814;11.134;2023-02-15T00:41:32;14.63;;;9.00;;
1811;SDS011;904;47.814;11.134;2023-02-15T00:44:01;17.80;;;10.07;;
1811;SDS011;904;47.814;11.134;2023-02-15T00:46:29;19.02;;;9.57;;
1811;SDS011;904;47.814;11.134;2023-02-15T00:48:56;14.20;;;9.43;;
1811;SDS011;904;47.814;11.134;2023-02-15T00:51:24;11.90;;;7.88;;
1811;SDS011;904;47.814;11.134;2023-02-15T00:53:51;18.40;;;10.13;;
1811;SDS011;904;47.814;11.134;2023-02-15T00:56:19;27.98;;;9.50;;
1811;SDS011;904;47.814;11.134;2023-02-15T00:58:46;19.88;;;11.02;;
1811;SDS011;904;47.814;11.134;2023-02-15T01:01:16;17.50;;;10.23;;
1811;SDS011;904;47.814;11.134;2023-02-15T01:03:44;19.40;;;9.48;;
1811;SDS011;904;47.814;11.134;2023-02-15T01:06:12;19.15;;;10.18;;
1811;SDS011;904;47.814;11.134;2023-02-15T01:08:43;13.25;;;9.13;;
1811;SDS011;904;47.814;11.134;2023-02-15T01:11:11;15.05;;;10.02;;
1811;SDS011;904;47.814;11.134;2023-02-15T01:13:39;17.42;;;9.68;;
1811;SDS011;904;47.814;11.134;2023-02-15T01:16:07;16.08;;;9.02;;
1811;SDS011;904;47.814;11.134;2023-02-15T01:18:36;18.75;;;9.00;;
1811;SDS011;904;47.814;11.134;2023-02-15T01:21:08;15.90;;;9.60;;
1811;SDS011;904;47.814;11.134;2023-02-15T01:23:38;20.27;;;9.88;;
1811;SDS011;904;47.814;11.134;2023-02-15T01:26:06;12.32;;;8.10;;
1811;SDS011;904;47.814;11.134;2023-02-15T01:28:33;12.95;;;8.52;;
1811;SDS011;904;47.814;11.134;2023-02-15T01:31:04;12.02;;;8.70;;
1811;SDS011;904;47.814;11.134;2023-02-15T01:33:32;14.45;;;8.77;;
1811;SDS011;904;47.814;11.134;2023-02-15T01:36:01;17.60;;;10.23;;
1811;SDS011;904;47.814;11.134;2023-02-15T01:38:29;15.07;;;8.75;;
1811;SDS011;904;47.814;11.134;2023-02-15T01:40:57;20.35;;;9.20;;
1811;SDS011;904;47.814;11.134;2023-02-15T01:43:45;13.07;;;8.75;;
1811;SDS011;904;47.814;11.134;2023-02-15T01:46:14;21.70;;;9.50;;
1811;SDS011;904;47.814;11.134;2023-02-15T01:48:44;18.20;;;9.05;;
1811;SDS011;904;47.814;11.134;2023-02-15T01:51:15;11.13;;;8.23;;
1811;SDS011;904;47.814;11.134;2023-02-15T01:53:47;12.30;;;8.10;;
1811;SDS011;904;47.814;11.134;2023-02-15T01:56:18;12.10;;;8.15;;
1811;SDS011;904;47.814;11.134;2023-02-15T01:58:47;14.07;;;7.60;;
1811;SDS011;904;47.814;11.134;2023-02-15T02:01:17;11.82;;;7.93;;
1811;SDS011;904;47.814;11.134;2023-02-15T02:03:48;10.75;;;7.15;;
1811;SDS011;904;47.814;11.134;2023-02-15T02:06:22;14.75;;;8.32;;
1811;SDS011;904;47.814;11.134;2023-02-15T02:08:52;13.88;;;7.38;;
1811;SDS011;904;47.814;11.134;2023-02-15T02:11:20;17.17;;;8.35;;
1811;SDS011;904;47.814;11.134;2023-02-15T02:13:47;18.20;;;9.35;;
1811;SDS011;904;47.814;11.134;2023-02-15T02:16:19;13.45;;;10.85;;
1811;SDS011;904;47.814;11.134;2023-02-15T02:18:53;13.35;;;9.13;;
1811;SDS011;904;47.814;11.134;2023-02-15T02:21:44;17.92;;;9.82;;
1811;SDS011;904;47.814;11.134;2023-02-15T02:24:57;11.73;;;7.97;;
1811;SDS011;904;47.814;11.134;2023-02-15T02:27:39;11.30;;;6.65;;
1811;SDS011;904;47.814;11.134;2023-02-15T02:30:18;14.40;;;8.80;;
1811;SDS011;904;47.814;11.134;2023-02-15T02:33:10;14.93;;;8.20;;
1811;SDS011;904;47.814;11.134;2023-02-15T02:35:57;16.83;;;9.27;;
1811;SDS011;904;47.814;11.134;2023-02-15T02:38:33;15.27;;;7.50;;
1811;SDS011;904;47.814;11.134;2023-02-15T02:41:11;12.15;;;9.25;;
1811;SDS011;904;47.814;11.134;2023-02-15T02:43:46;11.20;;;7.85;;
1811;SDS011;904;47.814;11.134;2023-02-15T02:46:20;15.60;;;8.13;;
1811;SDS011;904;47.814;11.134;2023-02-15T02:48:52;12.38;;;8.57;;
1811;SDS011;904;47.814;11.134;2023-02-15T02:51:20;11.65;;;8.52;;
1811;SDS011;904;47.814;11.134;2023-02-15T02:53:48;15.55;;;8.38;;
1811;SDS011;904;47.814;11.134;2023-02-15T02:56:19;11.18;;;8.13;;
1811;SDS011;904;47.814;11.134;2023-02-15T02:58:50;11.48;;;8.35;;
1811;SDS011;904;47.814;11.134;2023-02-15T03:01:23;13.60;;;7.95;;
1811;SDS011;904;47.814;11.134;2023-02-15T03:03:55;11.60;;;8.00;;
1811;SDS011;904;47.814;11.134;2023-02-15T03:06:28;8.77;;;6.35;;
1811;SDS011;904;47.814;11.134;2023-02-15T03:09:03;8.32;;;7.20;;
1811;SDS011;904;47.814;11.134;2023-02-15T03:11:40;13.50;;;7.25;;
1811;SDS011;904;47.814;11.134;2023-02-15T03:14:09;14.57;;;8.52;;
1811;SDS011;904;47.814;11.134;2023-02-15T03:16:39;12.05;;;7.90;;
1811;SDS011;904;47.814;11.134;2023-02-15T03:19:12;9.93;;;7.55;;
1811;SDS011;904;47.814;11.134;2023-02-15T03:21:42;11.13;;;7.93;;
1811;SDS011;904;47.814;11.134;2023-02-15T03:24:23;10.02;;;7.10;;
1811;SDS011;904;47.814;11.134;2023-02-15T03:26:55;13.98;;;7.55;;
1811;SDS011;904;47.814;11.134;2023-02-15T03:29:23;9.90;;;6.90;;
1811;SDS011;904;47.814;11.134;2023-02-15T03:31:55;20.05;;;8.70;;
1811;SDS011;904;47.814;11.134;2023-02-15T03:34:27;9.80;;;7.05;;
1811;SDS011;904;47.814;11.134;2023-02-15T03:36:56;9.85;;;7.03;;
1811;SDS011;904;47.814;11.134;2023-02-15T03:39:30;12.63;;;7.32;;
1811;SDS011;904;47.814;11.134;2023-02-15T03:42:03;13.18;;;7.93;;
1811;SDS011;904;47.814;11.134;2023-02-15T03:44:41;14.57;;;8.45;;
1811;SDS011;904;47.814;11.134;2023-02-15T03:47:17;11.15;;;8.07;;
1811;SDS011;904;47.814;11.134;2023-02-15T03:49:50;13.15;;;6.60;;
1811;SDS011;904;47.814;11.134;2023-02-15T03:52:21;13.05;;;8.23;;
1811;SDS011;904;47.814;11.134;2023-02-15T03:54:52;14.13;;;8.60;;
1811;SDS011;904;47.814;11.134;2023-02-15T03:57:20;16.70;;;8.15;;
1811;SDS011;904;47.814;11.134;2023-02-15T04:00:09;12.20;;;7.65;;
1811;SDS011;904;47.814;11.134;2023-02-15T04:03:04;10.45;;;8.30;;
1811;SDS011;904;47.814;11.134;2023-02-15T04:05:48;12.73;;;7.78;;
1811;SDS011;904;47.814;11.134;2023-02-15T04:08:15;10.20;;;7.13;;
1811;SDS011;904;47.814;11.134;2023-02-15T04:10:42;11.85;;;8.25;;
1811;SDS011;904;47.814;11.134;2023-02-15T04:13:17;11.27;;;7.00;;
1811;SDS011;904;47.814;11.134;2023-02-15T04:15:44;12.77;;;7.70;;
1811;SDS011;904;47.814;11.134;2023-02-15T04:18:29;10.55;;;7.30;;
1811;SDS011;904;47.814;11.134;2023-02-15T04:21:16;12.45;;;8.50;;
1811;SDS011;904;47.814;11.134;2023-02-15T04:24:00;10.50;;;7.30;;
1811;SDS011;904;47.814;11.134;2023-02-15T04:26:45;8.15;;;6.55;;
1811;SDS011;904;47.814;11.134;2023-02-15T04:29:14;10.73;;;6.72;;
1811;SDS011;904;47.814;11.134;2023-02-15T04:31:41;10.65;;;8.18;;
1811;SDS011;904;47.814;11.134;2023-02-15T04:34:09;12.07;;;6.97;;
1811;SDS011;904;47.814;11.134;2023-02-15T04:36:38;13.50;;;7.72;;
1811;SDS011;904;47.814;11.134;2023-02-15T04:39:05;8.98;;;7.18;;
1811;SDS011;904;47.814;11.134;2023-02-15T04:41:33;9.00;;;7.20;;
1811;SDS011;904;47.814;11.134;2023-02-15T04:44:01;12.93;;;7.38;;
1811;SDS011;904;47.814;11.134;2023-02-15T04:46:28;14.77;;;8.85;;
1811;SDS011;904;47.814;11.134;2023-02-15T04:48:56;11.50;;;9.50;;
1811;SDS011;904;47.814;11.134;2023-02-15T04:51:23;12.43;;;8.30;;
1811;SDS011;904;47.814;11.134;2023-02-15T04:53:52;11.30;;;7.93;;
1811;SDS011;904;47.814;11.134;2023-02-15T04:56:19;14.00;;;8.68;;
1811;SDS011;904;47.814;11.134;2023-02-15T04:58:47;12.35;;;8.57;;
1811;SDS011;904;47.814;11.134;2023-02-15T05:01:14;13.20;;;8.52;;
1811;SDS011;904;47.814;11.134;2023-02-15T05:03:42;10.85;;;7.88;;
1811;SDS011;904;47.814;11.134;2023-02-15T05:06:09;8.70;;;7.03;;
1811;SDS011;904;47.814;11.134;2023-02-15T05:08:36;10.60;;;7.60;;
1811;SDS011;904;47.814;11.134;2023-02-15T05:11:04;9.98;;;7.60;;
1811;SDS011;904;47.814;11.134;2023-02-15T05:13:32;8.10;;;6.72;;
1811;SDS011;904;47.814;11.134;2023-02-15T05:15:59;8.98;;;7.00;;
1811;SDS011;904;47.814;11.134;2023-02-15T05:18:27;9.23;;;6.90;;
1811;SDS011;904;47.814;11.134;2023-02-15T05:20:54;11.52;;;8.30;;
1811;SDS011;904;47.814;11.134;2023-02-15T05:23:21;9.02;;;7.25;;
1811;SDS011;904;47.814;11.134;2023-02-15T05:25:49;9.77;;;6.78;;
1811;SDS011;904;47.814;11.134;2023-02-15T05:28:36;10.40;;;6.65;;
1811;SDS011;904;47.814;11.134;2023-02-15T05:31:05;7.68;;;5.43;;
1811;SDS011;904;47.814;11.134;2023-02-15T05:33:33;14.05;;;7.22;;
1811;SDS011;904;47.814;11.134;2023-02-15T05:36:01;9.90;;;6.68;;
1811;SDS011;904;47.814;11.134;2023-02-15T05:38:29;9.27;;;6.82;;
1811;SDS011;904;47.814;11.134;2023-02-15T05:40:56;11.50;;;7.80;;
1811;SDS011;904;47.814;11.134;2023-02-15T05:43:24;16.52;;;7.03;;
1811;SDS011;904;47.814;11.134;2023-02-15T05:45:53;13.38;;;8.88;;
1811;SDS011;904;47.814;11.134;2023-02-15T05:48:21;15.20;;;10.20;;
1811;SDS011;904;47.814;11.134;2023-02-15T05:50:56;16.45;;;8.88;;
1811;SDS011;904;47.814;11.134;2023-02-15T05:53:24;12.15;;;9.80;;
1811;SDS011;904;47.814;11.134;2023-02-15T05:55:51;15.35;;;9.77;;
1811;SDS011;904;47.814;11.134;2023-02-15T05:58:23;18.77;;;12.65;;
1811;SDS011;904;47.814;11.134;2023-02-15T06:00:53;14.88;;;9.35;;
1811;SDS011;904;47.814;11.134;2023-02-15T06:03:20;18.58;;;10.43;;
1811;SDS011;904;47.814;11.134;2023-02-15T06:05:48;19.27;;;11.52;;
1811;SDS011;904;47.814;11.134;2023-02-15T06:08:15;17.77;;;10.75;;
1811;SDS011;904;47.814;11.134;2023-02-15T06:10:42;18.77;;;10.80;;
1811;SDS011;904;47.814;11.134;2023-02-15T06:13:11;27.70;;;13.55;;
1811;SDS011;904;47.814;11.134;2023-02-15T06:15:40;33.70;;;16.70;;
1811;SDS011;904;47.814;11.134;2023-02-15T06:18:08;32.25;;;17.73;;
1811;SDS011;904;47.814;11.134;2023-02-15T06:20:36;26.45;;;15.88;;
1811;SDS011;904;47.814;11.134;2023-02-15T06:23:03;21.98;;;12.90;;
1811;SDS011;904;47.814;11.134;2023-02-15T06:25:30;23.58;;;13.63;;
1811;SDS011;904;47.814;11.134;2023-02-15T06:27:57;19.52;;;12.30;;
1811;SDS011;904;47.814;11.134;2023-02-15T06:30:24;24.27;;;13.60;;
1811;SDS011;904;47.814;11.134;2023-02-15T06:32:51;22.67;;;14.00;;
1811;SDS011;904;47.814;11.134;2023-02-15T06:35:20;22.48;;;13.90;;
1811;SDS011;904;47.814;11.134;2023-02-15T06:37:47;27.35;;;14.32;;
1811;SDS011;904;47.814;11.134;2023-02-15T06:40:14;19.20;;;13.05;;
1811;SDS011;904;47.814;11.134;2023-02-15T06:42:42;20.65;;;11.05;;
1811;SDS011;904;47.814;11.134;2023-02-15T06:45:09;19.15;;;10.85;;
1811;SDS011;904;47.814;11.134;2023-02-15T06:47:40;17.15;;;10.77;;
1811;SDS011;904;47.814;11.134;2023-02-15T06:50:07;19.88;;;10.93;;
1811;SDS011;904;47.814;11.134;2023-02-15T06:52:36;20.17;;;10.98;;
1811;SDS011;904;47.814;11.134;2023-02-15T06:55:04;13.75;;;10.02;;
1811;SDS011;904;47.814;11.134;2023-02-15T06:57:31;15.02;;;9.30;;
1811;SDS011;904;47.814;11.134;2023-02-15T06:59:59;19.08;;;12.13;;
1811;SDS011;904;47.814;11.134;2023-02-15T07:02:26;15.15;;;10.52;;
1811;SDS011;904;47.814;11.134;2023-02-15T07:04:55;16.58;;;9.93;;
1811;SDS011;904;47.814;11.134;2023-02-15T07:07:23;13.82;;;11.82;;
1811;SDS011;904;47.814;11.134;2023-02-15T07:09:51;11.45;;;9.95;;
1811;SDS011;904;47.814;11.134;2023-02-15T07:12:18;15.65;;;10.75;;
1811;SDS011;904;47.814;11.134;2023-02-15T07:15:05;13.25;;;10.93;;
1811;SDS011;904;47.814;11.134;2023-02-15T07:17:34;14.48;;;9.68;;
1811;SDS011;904;47.814;11.134;2023-02-15T07:20:02;14.48;;;9.50;;
1811;SDS011;904;47.814;11.134;2023-02-15T07:22:30;11.10;;;8.63;;
1811;SDS011;904;47.814;11.134;2023-02-15T07:25:00;8.77;;;7.85;;
1811;SDS011;904;47.814;11.134;2023-02-15T07:27:27;11.10;;;7.90;;
1811;SDS011;904;47.814;11.134;2023-02-15T07:29:54;8.85;;;7.40;;
1811;SDS011;904;47.814;11.134;2023-02-15T07:32:21;9.98;;;8.10;;
1811;SDS011;904;47.814;11.134;2023-02-15T07:34:48;10.63;;;9.00;;
1811;SDS011;904;47.814;11.134;2023-02-15T07:37:15;11.65;;;8.02;;
1811;SDS011;904;47.814;11.134;2023-02-15T07:39:41;10.70;;;8.50;;
1811;SDS011;904;47.814;11.134;2023-02-15T07:42:10;9.65;;;7.70;;
1811;SDS011;904;47.814;11.134;2023-02-15T07:44:37;14.77;;;11.10;;
1811;SDS011;904;47.814;11.134;2023-02-15T07:47:04;10.75;;;8.77;;
1811;SDS011;904;47.814;11.134;2023-02-15T07:49:31;14.05;;;10.88;;
1811;SDS011;904;47.814;11.134;2023-02-15T07:51:59;13.27;;;10.60;;
1811;SDS011;904;47.814;11.134;2023-02-15T07:54:26;12.73;;;9.63;;
1811;SDS011;904;47.814;11.134;2023-02-15T07:56:54;15.40;;;9.60;;
1811;SDS011;904;47.814;11.134;2023-02-15T07:59:22;13.98;;;11.00;;
1811;SDS011;904;47.814;11.134;2023-02-15T08:01:49;14.30;;;11.07;;
1811;SDS011;904;47.814;11.134;2023-02-15T08:04:18;13.15;;;10.75;;
1811;SDS011;904;47.814;11.134;2023-02-15T08:06:45;12.57;;;10.73;;
1811;SDS011;904;47.814;11.134;2023-02-15T08:09:12;11.68;;;10.48;;
1811;SDS011;904;47.814;11.134;2023-02-15T08:11:39;13.02;;;11.40;;
1811;SDS011;904;47.814;11.134;2023-02-15T08:14:12;14.68;;;11.52;;
1811;SDS011;904;47.814;11.134;2023-02-15T08:16:42;13.48;;;10.70;;
1811;SDS011;904;47.814;11.134;2023-02-15T08:19:10;13.60;;;11.20;;
1811;SDS011;904;47.814;11.134;2023-02-15T08:21:40;12.80;;;11.43;;
1811;SDS011;904;47.814;11.134;2023-02-15T08:24:08;16.48;;;13.15;;
1811;SDS011;904;47.814;11.134;2023-02-15T08:26:37;15.98;;;11.63;;
1811;SDS011;904;47.814;11.134;2023-02-15T08:29:05;13.75;;;11.48;;
1811;SDS011;904;47.814;11.134;2023-02-15T08:31:34;14.35;;;10.65;;
1811;SDS011;904;47.814;11.134;2023-02-15T08:34:04;17.77;;;11.43;;
1811;SDS011;904;47.814;11.134;2023-02-15T08:36:31;12.70;;;11.40;;
1811;SDS011;904;47.814;11.134;2023-02-15T08:39:01;18.85;;;11.00;;
1811;SDS011;904;47.814;11.134;2023-02-15T08:41:30;17.20;;;11.63;;
1811;SDS011;904;47.814;11.134;2023-02-15T08:43:59;14.80;;;11.50;;
1811;SDS011;904;47.814;11.134;2023-02-15T08:46:28;12.70;;;11.40;;
1811;SDS011;904;47.814;11.134;2023-02-15T08:48:57;16.55;;;11.18;;
1811;SDS011;904;47.814;11.134;2023-02-15T08:51:26;14.13;;;10.50;;
1811;SDS011;904;47.814;11.134;2023-02-15T08:53:54;13.68;;;12.15;;
1811;SDS011;904;47.814;11.134;2023-02-15T08:56:24;13.43;;;10.73;;
1811;SDS011;904;47.814;11.134;2023-02-15T08:58:53;14.75;;;11.73;;
1811;SDS011;904;47.814;11.134;2023-02-15T09:01:21;18.15;;;11.82;;
1811;SDS011;904;47.814;11.134;2023-02-15T09:03:49;12.95;;;11.43;;
1811;SDS011;904;47.814;11.134;2023-02-15T09:06:18;13.45;;;11.52;;
1811;SDS011;904;47.814;11.134;2023-02-15T09:08:47;20.00;;;11.03;;
1811;SDS011;904;47.814;11.134;2023-02-15T09:11:16;15.13;;;12.83;;
1811;SDS011;904;47.814;11.134;2023-02-15T09:13:49;15.27;;;10.80;;
1811;SDS011;904;47.814;11.134;2023-02-15T09:16:18;15.43;;;10.83;;
1811;SDS011;904;47.814;11.134;2023-02-15T09:18:51;15.60;;;11.00;;
1811;SDS011;904;47.814;11.134;2023-02-15T09:21:19;16.03;;;11.73;;
1811;SDS011;904;47.814;11.134;2023-02-15T09:23:49;20.40;;;12.77;;
1811;SDS011;904;47.814;11.134;2023-02-15T09:26:18;24.17;;;13.70;;
1811;SDS011;904;47.814;11.134;2023-02-15T09:28:46;13.70;;;12.30;;
1811;SDS011;904;47.814;11.134;2023-02-15T09:31:15;19.50;;;12.80;;
1811;SDS011;904;47.814;11.134;2023-02-15T09:33:44;15.67;;;11.37;;
1811;SDS011;904;47.814;11.134;2023-02-15T09:36:14;14.73;;;11.73;;
1811;SDS011;904;47.814;11.134;2023-02-15T09:38:42;14.03;;;10.60;;
1811;SDS011;904;47.814;11.134;2023-02-15T09:44:23;12.83;;;11.53;;
1811;SDS011;904;47.814;11.134;2023-02-15T09:47:06;13.37;;;11.47;;
1811;SDS011;904;47.814;11.134;2023-02-15T09:49:46;13.00;;;11.70;;
1811;SDS011;904;47.814;11.134;2023-02-15T09:52:23;15.40;;;11.50;;
1811;SDS011;904;47.814;11.134;2023-02-15T09:55:10;17.10;;;12.50;;
1811;SDS011;904;47.814;11.134;2023-02-15T09:57:46;14.57;;;10.63;;
1811;SDS011;904;47.814;11.134;2023-02-15T10:00:24;12.97;;;11.63;;
1811;SDS011;904;47.814;11.134;2023-02-15T10:03:02;13.03;;;11.83;;
1811;SDS011;904;47.814;11.134;2023-02-15T10:05:38;14.27;;;10.07;;
1811;SDS011;904;47.814;11.134;2023-02-15T10:11:09;13.67;;;9.47;;
1811;SDS011;904;47.814;11.134;2023-02-15T10:14:02;13.83;;;10.37;;
1811;SDS011;904;47.814;11.134;2023-02-15T10:16:40;12.77;;;11.47;;
1811;SDS011;904;47.814;11.134;2023-02-15T10:19:15;14.00;;;9.87;;
1811;SDS011;904;47.814;11.134;2023-02-15T10:21:55;12.03;;;9.00;;
1811;SDS011;904;47.814;11.134;2023-02-15T10:24:32;10.10;;;7.70;;
1811;SDS011;904;47.814;11.134;2023-02-15T10:27:07;12.50;;;9.20;;
1811;SDS011;904;47.814;11.134;2023-02-15T10:29:41;13.40;;;9.20;;
1811;SDS011;904;47.814;11.134;2023-02-15T10:32:19;12.50;;;8.57;;
1811;SDS011;904;47.814;11.134;2023-02-15T10:34:51;10.77;;;6.87;;
1811;SDS011;904;47.814;11.134;2023-02-15T10:40:15;10.17;;;7.07;;
1811;SDS011;904;47.814;11.134;2023-02-15T10:42:56;7.40;;;6.50;;
1811;SDS011;904;47.814;11.134;2023-02-15T10:45:39;10.03;;;6.23;;
1811;SDS011;904;47.814;11.134;2023-02-15T10:48:18;9.90;;;6.23;;
1811;SDS011;904;47.814;11.134;2023-02-15T10:50:57;10.20;;;6.70;;
1811;SDS011;904;47.814;11.134;2023-02-15T10:53:39;11.33;;;8.13;;
1811;SDS011;904;47.814;11.134;2023-02-15T10:56:24;12.03;;;7.40;;
1811;SDS011;904;47.814;11.134;2023-02-15T10:59:06;14.83;;;9.00;;
1811;SDS011;904;47.814;11.134;2023-02-15T11:01:51;10.57;;;8.87;;
1811;SDS011;904;47.814;11.134;2023-02-15T11:04:39;16.57;;;12.10;;
1811;SDS011;904;47.814;11.134;2023-02-15T11:07:15;14.13;;;9.17;;
1811;SDS011;904;47.814;11.134;2023-02-15T11:09:46;11.10;;;9.90;;
1811;SDS011;904;47.814;11.134;2023-02-15T11:12:16;14.47;;;9.70;;
1811;SDS011;904;47.814;11.134;2023-02-15T11:14:46;10.07;;;8.17;;
1811;SDS011;904;47.814;11.134;2023-02-15T11:17:21;11.57;;;9.00;;
1811;SDS011;904;47.814;11.134;2023-02-15T11:19:55;14.60;;;8.70;;
1811;SDS011;904;47.814;11.134;2023-02-15T11:22:27;11.27;;;8.93;;
1811;SDS011;904;47.814;11.134;2023-02-15T11:24:56;11.63;;;8.20;;
1811;SDS011;904;47.814;11.134;2023-02-15T11:27:25;11.73;;;7.90;;
1811;SDS011;904;47.814;11.134;2023-02-15T11:30:01;8.63;;;7.73;;
1811;SDS011;904;47.814;11.134;2023-02-15T11:32:37;9.57;;;7.23;;
1811;SDS011;904;47.814;11.134;2023-02-15T11:35:18;8.83;;;6.53;;
1811;SDS011;904;47.814;11.134;2023-02-15T11:37:51;9.30;;;6.07;;
1811;SDS011;904;47.814;11.134;2023-02-15T11:40:24;10.10;;;7.00;;
1811;SDS011;904;47.814;11.134;2023-02-15T11:42:55;9.23;;;6.80;;
1811;SDS011;904;47.814;11.134;2023-02-15T11:45:25;11.80;;;7.10;;
1811;SDS011;904;47.814;11.134;2023-02-15T11:47:55;10.40;;;7.50;;
1811;SDS011;904;47.814;11.134;2023-02-15T11:50:25;8.50;;;6.50;;
1811;SDS011;904;47.814;11.134;2023-02-15T11:52:59;8.37;;;5.73;;
1811;SDS011;904;47.814;11.134;2023-02-15T11:55:28;8.73;;;6.37;;
1811;SDS011;904;47.814;11.134;2023-02-15T11:57:59;13.60;;;6.17;;
1811;SDS011;904;47.814;11.134;2023-02-15T12:00:32;10.30;;;6.33;;
1811;SDS011;904;47.814;11.134;2023-02-15T12:03:14;7.80;;;6.33;;
1811;SDS011;904;47.814;11.134;2023-02-15T12:05:49;8.97;;;5.70;;
1811;SDS011;904;47.814;11.134;2023-02-15T12:08:22;8.13;;;6.10;;
1811;SDS011;904;47.814;11.134;2023-02-15T12:10:56;11.70;;;6.27;;
1811;SDS011;904;47.814;11.134;2023-02-15T12:13:26;12.23;;;6.63;;
1811;SDS011;904;47.814;11.134;2023-02-15T12:15:56;5.70;;;5.10;;
1811;SDS011;904;47.814;11.134;2023-02-15T12:18:35;6.07;;;4.00;;
1811;SDS011;904;47.814;11.134;2023-02-15T12:21:05;6.20;;;5.00;;
1811;SDS011;904;47.814;11.134;2023-02-15T12:23:39;6.33;;;3.40;;
1811;SDS011;904;47.814;11.134;2023-02-15T12:26:10;6.53;;;4.20;;
1811;SDS011;904;47.814;11.134;2023-02-15T12:28:37;6.33;;;4.37;;
1811;SDS011;904;47.814;11.134;2023-02-15T12:31:07;7.60;;;4.70;;
1811;SDS011;904;47.814;11.134;2023-02-15T12:33:46;6.23;;;4.13;;
1811;SDS011;904;47.814;11.134;2023-02-15T12:36:15;4.80;;;3.80;;
1811;SDS011;904;47.814;11.134;2023-02-15T12:41:31;8.90;;;4.87;;
1811;SDS011;904;47.814;11.134;2023-02-15T12:44:03;6.30;;;4.30;;
1811;SDS011;904;47.814;11.134;2023-02-15T12:46:32;5.70;;;4.43;;
1811;SDS011;904;47.814;11.134;2023-02-15T12:49:11;13.67;;;4.93;;
1811;SDS011;904;47.814;11.134;2023-02-15T12:51:46;5.90;;;4.00;;
1811;SDS011;904;47.814;11.134;2023-02-15T12:59:58;4.80;;;3.50;;
1811;SDS011;904;47.814;11.134;2023-02-15T13:02:28;5.40;;;3.87;;
1811;SDS011;904;47.814;11.134;2023-02-15T13:05:06;4.83;;;4.17;;
1811;SDS011;904;47.814;11.134;2023-02-15T13:07:44;7.23;;;3.50;;
1811;SDS011;904;47.814;11.134;2023-02-15T13:10:25;6.93;;;4.37;;
1811;SDS011;904;47.814;11.134;2023-02-15T13:12:53;5.40;;;4.40;;
1811;SDS011;904;47.814;11.134;2023-02-15T13:15:31;5.33;;;3.80;;
1811;SDS011;904;47.814;11.134;2023-02-15T13:18:02;10.17;;;4.07;;
1811;SDS011;904;47.814;11.134;2023-02-15T13:20:31;7.50;;;3.60;;
1811;SDS011;904;47.814;11.134;2023-02-15T13:23:02;12.27;;;4.63;;
1811;SDS011;904;47.814;11.134;2023-02-15T13:25:33;4.60;;;3.90;;
1811;SDS011;904;47.814;11.134;2023-02-15T13:28:06;6.40;;;3.63;;
1811;SDS011;904;47.814;11.134;2023-02-15T13:30:42;5.83;;;4.17;;
1811;SDS011;904;47.814;11.134;2023-02-15T13:33:13;4.73;;;3.30;;
1811;SDS011;904;47.814;11.134;2023-02-15T13:35:48;6.47;;;3.70;;
1811;SDS011;904;47.814;11.134;2023-02-15T13:38:35;5.37;;;3.50;;
1811;SDS011;904;47.814;11.134;2023-02-15T13:41:25;7.23;;;3.40;;
1811;SDS011;904;47.814;11.134;2023-02-15T13:43:59;6.00;;;3.30;;
1811;SDS011;904;47.814;11.134;2023-02-15T13:46:45;6.27;;;3.03;;
1811;SDS011;904;47.814;11.134;2023-02-15T13:49:26;6.67;;;3.60;;
1811;SDS011;904;47.814;11.134;2023-02-15T13:52:08;4.57;;;3.97;;
1811;SDS011;904;47.814;11.134;2023-02-15T13:57:51;8.77;;;4.83;;
1811;SDS011;904;47.814;11.134;2023-02-15T14:00:43;6.00;;;3.87;;
1811;SDS011;904;47.814;11.134;2023-02-15T14:03:21;7.77;;;3.53;;
1811;SDS011;904;47.814;11.134;2023-02-15T14:09:28;6.40;;;4.47;;
1811;SDS011;904;47.814;11.134;2023-02-15T14:12:13;5.20;;;3.80;;
1811;SDS011;904;47.814;11.134;2023-02-15T14:14:56;6.00;;;4.30;;
1811;SDS011;904;47.814;11.134;2023-02-15T14:17:37;5.70;;;4.27;;
1811;SDS011;904;47.814;11.134;2023-02-15T14:20:15;5.47;;;3.77;;
1811;SDS011;904;47.814;11.134;2023-02-15T14:22:51;5.37;;;3.80;;
1811;SDS011;904;47.814;11.134;2023-02-15T14:25:28;11.03;;;4.80;;
1811;SDS011;904;47.814;11.134;2023-02-15T14:28:01;7.50;;;4.10;;
1811;SDS011;904;47.814;11.134;2023-02-15T14:30:36;6.30;;;4.10;;
1811;SDS011;904;47.814;11.134;2023-02-15T14:33:05;8.00;;;4.60;;
1811;SDS011;904;47.814;11.134;2023-02-15T14:35:47;7.00;;;4.30;;
1811;SDS011;904;47.814;11.134;2023-02-15T14:38:15;6.00;;;4.13;;
1811;SDS011;904;47.814;11.134;2023-02-15T14:40:53;6.90;;;4.50;;
1811;SDS011;904;47.814;11.134;2023-02-15T14:43:30;13.37;;;4.80;;
1811;SDS011;904;47.814;11.134;2023-02-15T14:46:10;6.87;;;3.90;;
1811;SDS011;904;47.814;11.134;2023-02-15T14:48:46;8.90;;;4.47;;
1811;SDS011;904;47.814;11.134;2023-02-15T14:57:23;9.73;;;4.37;;
1811;SDS011;904;47.814;11.134;2023-02-15T14:59:53;6.67;;;4.80;;
1811;SDS011;904;47.814;11.134;2023-02-15T15:02:23;8.97;;;5.10;;
1811;SDS011;904;47.814;11.134;2023-02-15T15:04:55;8.50;;;5.10;;
1811;SDS011;904;47.814;11.134;2023-02-15T15:07:27;6.47;;;4.70;;
1811;SDS011;904;47.814;11.134;2023-02-15T15:10:02;10.03;;;6.20;;
1811;SDS011;904;47.814;11.134;2023-02-15T15:12:42;9.23;;;5.50;;
1811;SDS011;904;47.814;11.134;2023-02-15T15:15:13;10.50;;;5.03;;
1811;SDS011;904;47.814;11.134;2023-02-15T15:17:58;7.17;;;5.13;;
1811;SDS011;904;47.814;11.134;2023-02-15T15:20:41;8.00;;;4.97;;
1811;SDS011;904;47.814;11.134;2023-02-15T15:26:20;8.17;;;5.30;;
1811;SDS011;904;47.814;11.134;2023-02-15T15:29:00;10.80;;;6.20;;
1811;SDS011;904;47.814;11.134;2023-02-15T15:31:30;10.57;;;6.57;;
1811;SDS011;904;47.814;11.134;2023-02-15T15:37:23;8.30;;;5.90;;
1811;SDS011;904;47.814;11.134;2023-02-15T15:43:24;7.20;;;5.50;;
1811;SDS011;904;47.814;11.134;2023-02-15T15:49:14;9.33;;;6.30;;
1811;SDS011;904;47.814;11.134;2023-02-15T15:51:44;9.83;;;8.03;;
1811;SDS011;904;47.814;11.134;2023-02-15T15:54:13;10.00;;;8.40;;
1811;SDS011;904;47.814;11.134;2023-02-15T15:56:43;9.47;;;6.80;;
1811;SDS011;904;47.814;11.134;2023-02-15T15:59:14;8.20;;;6.40;;
1811;SDS011;904;47.814;11.134;2023-02-15T16:01:47;12.73;;;6.60;;
1811;SDS011;904;47.814;11.134;2023-02-15T16:04:22;13.13;;;7.70;;
1811;SDS011;904;47.814;11.134;2023-02-15T16:06:50;8.40;;;6.73;;
1811;SDS011;904;47.814;11.134;2023-02-15T16:09:18;11.60;;;7.63;;
1811;SDS011;904;47.814;11.134;2023-02-15T16:11:46;8.63;;;6.27;;
1811;SDS011;904;47.814;11.134;2023-02-15T16:14:16;9.77;;;7.57;;
1811;SDS011;904;47.814;11.134;2023-02-15T16:16:51;11.87;;;8.07;;